createdAt,value
2019-05-15T00:00:09.068Z,34.10
2019-05-15T00:02:44.141Z,34.08
2019-05-15T00:05:18.821Z,34.02
2019-05-15T00:07:52.473Z,34.08
2019-05-15T00:10:25.882Z,34.05
2019-05-15T00:12:59.286Z,34.05
2019-05-15T00:15:32.662Z,33.45
2019-05-15T00:18:05.994Z,33.76
2019-05-15T00:20:39.798Z,33.82
2019-05-15T00:23:13.170Z,33.93
2019-05-15T00:25:48.775Z,33.87
2019-05-15T00:28:21.633Z,33.96
2019-05-15T00:30:58.290Z,33.97
2019-05-15T00:33:31.231Z,33.97
2019-05-15T00:36:04.610Z,34.00
2019-05-15T00:38:39.027Z,33.97
2019-05-15T00:41:12.658Z,33.97
2019-05-15T00:43:45.872Z,33.95
2019-05-15T00:46:19.193Z,33.96
2019-05-15T00:48:52.507Z,33.97
2019-05-15T00:51:28.310Z,33.97
2019-05-15T00:54:01.065Z,33.97
2019-05-15T00:56:34.398Z,34.00
2019-05-15T00:59:08.399Z,34.01
2019-05-15T01:01:41.751Z,33.97
2019-05-15T01:04:15.061Z,33.96
2019-05-15T01:06:49.794Z,34.00
2019-05-15T01:09:23.461Z,33.99
2019-05-15T01:11:58.712Z,34.00
2019-05-15T01:14:31.844Z,33.97
2019-05-15T01:17:08.871Z,33.99
2019-05-15T01:19:41.401Z,33.98
2019-05-15T01:22:14.758Z,34.01
2019-05-15T01:24:48.526Z,33.96
2019-05-15T01:27:22.109Z,33.94
2019-05-15T01:29:55.556Z,33.97
2019-05-15T01:32:28.862Z,33.97
2019-05-15T01:35:02.248Z,33.98
2019-05-15T01:37:39.074Z,34.00
2019-05-15T01:40:12.356Z,34.00
2019-05-15T01:42:45.688Z,33.98
2019-05-15T01:45:19.046Z,34.00
2019-05-15T01:47:52.185Z,34.00
2019-05-15T01:50:25.524Z,33.90
2019-05-15T01:52:58.845Z,33.94
2019-05-15T01:55:32.315Z,33.96
2019-05-15T01:58:05.661Z,33.95
2019-05-15T02:00:40.040Z,33.95
2019-05-15T02:03:13.348Z,33.96
2019-05-15T02:05:48.071Z,33.96
2019-05-15T02:08:22.815Z,33.97
2019-05-15T02:10:58.621Z,33.93
2019-05-15T02:13:31.181Z,33.88
2019-05-15T02:16:04.708Z,33.91
2019-05-15T02:18:39.074Z,33.93
2019-05-15T02:21:12.667Z,33.95
2019-05-15T02:23:48.196Z,33.93
2019-05-15T02:26:21.307Z,33.94
2019-05-15T02:28:54.672Z,33.94
2019-05-15T02:31:30.275Z,33.93
2019-05-15T02:34:03.393Z,33.93
2019-05-15T02:36:39.756Z,33.92
2019-05-15T02:39:11.785Z,33.92
2019-05-15T02:41:45.156Z,33.92
2019-05-15T02:44:20.329Z,33.90
2019-05-15T02:46:53.691Z,33.88
2019-05-15T02:49:29.909Z,33.90
2019-05-15T02:52:02.045Z,33.89
2019-05-15T02:54:35.517Z,33.89
2019-05-15T02:57:09.766Z,33.89
2019-05-15T02:59:43.386Z,33.88
2019-05-15T03:02:19.106Z,33.88
2019-05-15T03:04:51.765Z,33.90
2019-05-15T03:07:25.208Z,33.93
2019-05-15T03:09:59.995Z,33.87
2019-05-15T03:12:33.567Z,33.86
2019-05-15T03:15:09.566Z,33.87
2019-05-15T03:17:41.910Z,33.89
2019-05-15T03:20:18.521Z,33.91
2019-05-15T03:22:50.328Z,33.93
2019-05-15T03:25:23.641Z,33.88
2019-05-15T03:27:59.594Z,33.91
2019-05-15T03:30:41.845Z,33.89
2019-05-15T03:33:15.803Z,33.90
2019-05-15T03:35:44.127Z,33.92
2019-05-15T03:38:19.305Z,33.83
2019-05-15T03:40:52.457Z,33.88
2019-05-15T03:43:28.946Z,33.86
2019-05-15T03:46:01.872Z,33.82
2019-05-15T03:48:35.409Z,33.85
2019-05-15T03:51:09.341Z,33.82
2019-05-15T03:53:42.841Z,33.80
2019-05-15T03:56:18.891Z,33.81
2019-05-15T03:58:51.309Z,33.83
2019-05-15T04:01:36.656Z,33.81
2019-05-15T04:04:00.003Z,33.87
2019-05-15T04:06:33.401Z,33.89
2019-05-15T04:09:09.667Z,33.73
2019-05-15T04:11:41.934Z,33.69
2019-05-15T04:14:15.328Z,33.53
2019-05-15T04:16:49.784Z,33.49
2019-05-15T04:19:23.486Z,33.54
2019-05-15T04:21:59.788Z,33.60
2019-05-15T04:24:31.830Z,33.61
2019-05-15T04:27:07.201Z,33.04
2019-05-15T04:29:41.780Z,33.02
2019-05-15T04:32:15.082Z,32.66
2019-05-15T04:34:48.986Z,32.87
2019-05-15T04:37:22.458Z,32.44
2019-05-15T04:39:55.826Z,32.25
2019-05-15T04:42:30.034Z,31.93
2019-05-15T04:45:09.645Z,31.91
2019-05-15T04:47:40.726Z,31.96
2019-05-15T04:50:14.062Z,31.73
2019-05-15T04:52:50.123Z,31.51
2019-05-15T04:55:22.774Z,31.03
2019-05-15T04:57:58.995Z,31.13
2019-05-15T05:00:51.338Z,31.25
2019-05-15T05:03:24.823Z,31.61
2019-05-15T05:05:59.486Z,31.73
2019-05-15T05:08:32.856Z,31.40
2019-05-15T05:11:09.437Z,31.05
2019-05-15T05:13:41.383Z,31.75
2019-05-15T05:16:19.402Z,31.45
2019-05-15T05:18:52.805Z,31.75
2019-05-15T05:21:27.805Z,31.85
2019-05-15T05:24:01.358Z,31.37
2019-05-15T05:26:34.775Z,31.55
2019-05-15T05:29:08.736Z,31.98
2019-05-15T05:31:42.187Z,31.50
2019-05-15T05:34:15.751Z,31.64
2019-05-15T05:36:49.046Z,31.87
2019-05-15T05:39:22.514Z,30.90
2019-05-15T05:41:55.900Z,31.55
2019-05-15T05:44:29.400Z,31.27
2019-05-15T05:47:02.763Z,31.22
2019-05-15T05:49:38.086Z,31.26
2019-05-15T05:52:11.097Z,31.68
2019-05-15T05:54:44.477Z,31.54
2019-05-15T05:57:19.362Z,31.45
2019-05-15T05:59:53.324Z,31.76
2019-05-15T06:02:27.995Z,31.05
2019-05-15T06:05:01.443Z,31.07
2019-05-15T06:07:38.402Z,31.18
2019-05-15T06:10:10.984Z,31.17
2019-05-15T06:12:44.619Z,31.28
2019-05-15T06:15:18.082Z,31.19
2019-05-15T06:17:51.528Z,31.67
2019-05-15T06:20:24.939Z,31.01
2019-05-15T06:22:58.260Z,31.21
2019-05-15T06:25:31.872Z,32.11
2019-05-15T06:28:06.268Z,31.42
2019-05-15T06:30:39.649Z,31.49
2019-05-15T06:33:13.626Z,31.21
2019-05-15T06:35:49.014Z,31.20
2019-05-15T06:38:23.838Z,31.21
2019-05-15T06:40:58.257Z,30.84
2019-05-15T06:43:31.864Z,31.08
2019-05-15T06:46:05.767Z,30.98
2019-05-15T06:48:39.094Z,31.15
2019-05-15T06:51:12.468Z,31.20
2019-05-15T06:53:49.120Z,31.11
2019-05-15T06:56:24.595Z,31.25
2019-05-15T06:58:58.253Z,31.09
2019-05-15T07:01:31.782Z,31.00
2019-05-15T07:04:05.095Z,30.77
2019-05-15T07:06:38.490Z,30.74
2019-05-15T07:09:11.818Z,30.83
2019-05-15T07:11:45.150Z,30.84
2019-05-15T07:14:19.521Z,30.90
2019-05-15T07:16:52.877Z,30.88
2019-05-15T07:19:28.377Z,30.82
2019-05-15T07:22:01.430Z,30.24
2019-05-15T07:24:34.737Z,30.42
2019-05-15T07:27:10.777Z,30.61
2019-05-15T07:29:44.094Z,30.34
2019-05-15T07:32:19.269Z,30.54
2019-05-15T07:34:53.628Z,29.76
2019-05-15T07:37:29.004Z,30.23
2019-05-15T07:40:04.513Z,30.22
2019-05-15T07:42:38.920Z,30.26
2019-05-15T07:45:13.428Z,30.12
2019-05-15T07:47:48.943Z,30.16
2019-05-15T07:50:21.985Z,30.16
2019-05-15T07:52:55.331Z,30.18
2019-05-15T07:55:29.613Z,30.14
2019-05-15T07:58:03.214Z,30.37
2019-05-15T08:00:39.441Z,30.19
2019-05-15T08:03:13.872Z,29.92
2019-05-15T08:05:58.011Z,30.44
2019-05-15T08:08:22.302Z,30.17
2019-05-15T08:10:57.812Z,30.08
2019-05-15T08:13:30.657Z,29.94
2019-05-15T08:16:05.229Z,29.97
2019-05-15T08:18:40.188Z,29.85
2019-05-15T08:21:18.588Z,29.96
2019-05-15T08:23:51.794Z,29.83
2019-05-15T08:26:25.226Z,30.03
2019-05-15T08:28:58.537Z,30.24
2019-05-15T08:31:31.957Z,30.30
2019-05-15T08:34:15.331Z,30.13
2019-05-15T08:36:40.287Z,30.01
2019-05-15T08:39:13.609Z,30.00
2019-05-15T08:41:48.435Z,29.75
2019-05-15T08:44:21.976Z,29.89
2019-05-15T08:46:55.624Z,29.93
2019-05-15T08:49:28.921Z,29.94
2019-05-15T08:52:02.290Z,30.08
2019-05-15T08:54:38.238Z,29.71
2019-05-15T08:57:10.857Z,29.85
2019-05-15T08:59:44.002Z,29.92
2019-05-15T09:02:18.548Z,29.78
2019-05-15T09:04:52.066Z,29.96
2019-05-15T09:07:25.665Z,30.10
2019-05-15T09:09:58.995Z,29.66
2019-05-15T09:12:32.413Z,29.92
2019-05-15T09:15:09.114Z,29.77
2019-05-15T09:17:43.503Z,29.81
2019-05-15T09:20:19.226Z,29.38
2019-05-15T09:22:53.441Z,29.90
2019-05-15T09:25:28.740Z,29.17
2019-05-15T09:28:01.800Z,29.18
2019-05-15T09:30:35.206Z,29.02
2019-05-15T09:33:08.863Z,28.42
2019-05-15T09:35:42.266Z,28.68
2019-05-15T09:38:18.165Z,28.78
2019-05-15T09:40:51.256Z,28.76
2019-05-15T09:43:24.839Z,28.93
2019-05-15T09:45:58.432Z,28.59
2019-05-15T09:48:31.920Z,28.98
2019-05-15T09:51:05.322Z,28.64
2019-05-15T09:53:39.504Z,29.00
2019-05-15T09:56:13.074Z,29.03
2019-05-15T09:58:48.612Z,29.08
2019-05-15T10:01:22.909Z,29.15
2019-05-15T10:03:56.280Z,29.15
2019-05-15T10:06:29.598Z,28.92
2019-05-15T10:09:04.614Z,28.92
2019-05-15T10:11:38.340Z,29.32
2019-05-15T10:14:12.820Z,29.08
2019-05-15T10:16:48.097Z,29.08
2019-05-15T10:19:21.276Z,28.84
2019-05-15T10:21:54.608Z,29.09
2019-05-15T10:24:28.942Z,29.33
2019-05-15T10:27:02.262Z,29.63
2019-05-15T10:29:35.664Z,29.20
2019-05-15T10:32:08.996Z,28.50
2019-05-15T10:34:42.352Z,28.99
2019-05-15T10:37:18.394Z,28.98
2019-05-15T10:39:52.851Z,29.20
2019-05-15T10:42:28.778Z,29.26
2019-05-15T10:45:00.944Z,28.81
2019-05-15T10:47:34.547Z,28.88
2019-05-15T10:50:09.209Z,28.95
2019-05-15T10:52:43.937Z,28.86
2019-05-15T10:55:18.917Z,28.36
2019-05-15T10:57:52.591Z,28.76
2019-05-15T11:00:28.342Z,28.93
2019-05-15T11:03:00.928Z,28.54
2019-05-15T11:05:41.841Z,28.73
2019-05-15T11:08:09.291Z,28.87
2019-05-15T11:10:42.899Z,29.08
2019-05-15T11:13:18.590Z,28.80
2019-05-15T11:15:51.443Z,28.95
2019-05-15T11:18:24.844Z,29.00
2019-05-15T11:20:59.306Z,28.35
2019-05-15T11:23:39.461Z,28.64
2019-05-15T11:26:12.977Z,28.93
2019-05-15T11:28:49.416Z,29.22
2019-05-15T11:31:24.694Z,29.27
2019-05-15T11:33:58.569Z,28.93
2019-05-15T11:36:32.044Z,29.02
2019-05-15T11:39:08.355Z,29.12
2019-05-15T11:41:41.531Z,29.01
2019-05-15T11:44:14.924Z,29.15
2019-05-15T11:46:49.632Z,29.21
2019-05-15T11:49:23.251Z,28.90
2019-05-15T11:52:00.545Z,28.87
2019-05-15T11:54:31.969Z,28.62
2019-05-15T11:57:08.452Z,29.37
2019-05-15T11:59:45.001Z,29.42
2019-05-15T12:02:18.849Z,29.21
2019-05-15T12:04:51.281Z,29.53
2019-05-15T12:07:24.902Z,29.48
2019-05-15T12:09:58.235Z,29.44
2019-05-15T12:12:32.143Z,29.51
2019-05-15T12:15:06.082Z,29.45
2019-05-15T12:17:39.759Z,28.89
2019-05-15T12:20:13.112Z,29.48
2019-05-15T12:22:48.571Z,29.43
2019-05-15T12:25:21.774Z,29.56
2019-05-15T12:27:55.140Z,29.62
2019-05-15T12:33:03.699Z,28.99
2019-05-15T12:35:40.082Z,29.46
2019-05-15T12:38:13.642Z,29.46
2019-05-15T13:01:32.025Z,29.65
2019-05-15T13:04:05.339Z,29.56
2019-05-15T13:06:48.093Z,29.55
2019-05-15T13:09:13.876Z,29.35
2019-05-15T13:11:48.506Z,29.50
2019-05-15T13:14:23.283Z,29.37
2019-05-15T13:16:58.981Z,29.50
2019-05-15T13:19:32.210Z,29.49
2019-05-15T13:22:17.330Z,29.39
2019-05-15T13:24:40.989Z,29.35
2019-05-15T13:27:14.341Z,29.30
2019-05-15T13:29:48.630Z,29.24
2019-05-15T13:32:22.182Z,29.15
2019-05-15T13:34:55.601Z,29.12
2019-05-15T13:37:30.956Z,29.19
2019-05-15T13:40:05.547Z,28.89
2019-05-15T13:42:39.517Z,29.10
2019-05-15T13:45:13.714Z,29.10
2019-05-15T13:47:48.726Z,28.98
2019-05-15T13:50:22.043Z,28.67
2019-05-15T13:52:55.450Z,28.95
2019-05-15T13:55:36.147Z,28.99
2019-05-15T13:58:04.174Z,28.84
2019-05-15T14:00:38.933Z,28.99
2019-05-15T14:03:12.590Z,28.92
2019-05-15T14:05:49.834Z,29.05
2019-05-15T14:08:22.227Z,28.98
2019-05-15T14:10:58.104Z,29.08
2019-05-15T14:13:30.873Z,29.12
2019-05-15T14:16:04.205Z,28.62
2019-05-15T14:18:39.078Z,28.90
2019-05-15T14:21:12.648Z,29.06
2019-05-15T14:23:47.874Z,28.37
2019-05-15T14:26:23.903Z,28.62
2019-05-15T14:28:58.559Z,28.86
2019-05-15T14:31:31.041Z,29.03
2019-05-15T14:34:04.994Z,29.07
2019-05-15T14:36:38.876Z,29.31
2019-05-15T14:39:12.572Z,29.27
2019-05-15T14:41:45.969Z,29.32
2019-05-15T14:44:21.919Z,29.34
2019-05-15T14:46:58.229Z,29.35
2019-05-15T14:49:34.201Z,29.46
2019-05-15T14:52:09.287Z,29.33
2019-05-15T14:54:42.069Z,29.36
2019-05-15T14:57:15.417Z,29.40
2019-05-15T14:59:49.683Z,29.47
2019-05-15T15:02:23.261Z,29.63
2019-05-15T15:04:59.234Z,28.74
2019-05-15T15:07:31.790Z,29.28
2019-05-15T15:10:07.414Z,29.29
2019-05-15T15:12:40.750Z,29.27
2019-05-15T15:15:14.082Z,29.31
2019-05-15T15:17:50.010Z,29.32
2019-05-15T15:20:23.481Z,28.69
2019-05-15T15:22:58.785Z,29.10
2019-05-15T15:25:32.225Z,29.21
2019-05-15T15:28:08.035Z,29.17
2019-05-15T15:30:40.732Z,29.09
2019-05-15T15:33:14.097Z,29.23
2019-05-15T15:35:48.694Z,29.25
2019-05-15T15:38:38.103Z,29.36
2019-05-15T15:41:00.456Z,29.47
2019-05-15T15:43:34.977Z,29.61
2019-05-15T15:46:08.758Z,29.26
2019-05-15T15:48:42.415Z,29.41
2019-05-15T15:53:42.224Z,29.54
2019-05-15T15:56:18.256Z,29.45
2019-05-15T15:58:50.588Z,29.49
2019-05-15T16:01:27.479Z,29.26
2019-05-15T16:03:59.614Z,29.39
2019-05-15T16:06:32.911Z,29.51
2019-05-15T16:09:08.456Z,29.58
2019-05-15T16:11:41.912Z,29.89
2019-05-15T16:14:18.021Z,29.82
2019-05-15T16:16:51.593Z,29.80
2019-05-15T16:19:24.960Z,29.87
2019-05-15T16:21:59.501Z,30.01
2019-05-15T16:24:33.055Z,30.06
2019-05-15T16:27:08.982Z,30.36
2019-05-15T16:29:41.620Z,30.13
2019-05-15T16:32:14.947Z,29.72
2019-05-15T16:34:48.439Z,29.60
2019-05-15T16:37:22.661Z,29.87
2019-05-15T16:39:57.903Z,29.82
2019-05-15T16:42:31.840Z,30.48
2019-05-15T16:45:09.026Z,30.86
2019-05-15T16:47:41.381Z,30.90
2019-05-15T16:50:14.792Z,31.08
2019-05-15T16:52:49.086Z,30.94
2019-05-15T16:55:22.590Z,31.10
2019-05-15T16:57:58.376Z,31.20
2019-05-15T17:00:31.640Z,31.29
2019-05-15T17:03:13.537Z,30.79
2019-05-15T17:05:40.092Z,30.98
2019-05-15T17:08:13.258Z,31.16
2019-05-15T17:10:48.316Z,31.17
2019-05-15T17:13:21.823Z,31.26
2019-05-15T17:15:55.236Z,30.92
2019-05-15T17:18:28.842Z,31.08
2019-05-15T17:21:02.263Z,31.09
2019-05-15T17:23:38.067Z,31.08
2019-05-15T17:26:10.851Z,31.22
2019-05-15T17:28:44.216Z,31.23
2019-05-15T17:31:18.111Z,31.26
2019-05-15T17:33:51.821Z,31.23
2019-05-15T17:36:25.253Z,31.12
2019-05-15T17:38:58.597Z,31.00
2019-05-15T17:41:31.733Z,31.26
2019-05-15T17:44:05.207Z,31.27
2019-05-15T17:46:38.727Z,31.20
2019-05-15T17:49:15.535Z,31.15
2019-05-15T17:51:48.856Z,31.12
2019-05-15T17:54:23.330Z,30.93
2019-05-15T17:56:58.349Z,31.20
2019-05-15T17:59:31.944Z,31.09
2019-05-15T18:02:05.271Z,31.02
2019-05-15T18:04:38.924Z,31.13
2019-05-15T18:07:12.235Z,31.09
2019-05-15T18:09:51.563Z,31.12
2019-05-15T18:12:20.664Z,31.16
2019-05-15T18:14:53.984Z,31.06
2019-05-15T18:17:27.361Z,30.97
2019-05-15T18:20:02.323Z,31.00
2019-05-15T18:22:37.898Z,31.06
2019-05-15T18:25:11.068Z,31.05
2019-05-15T18:27:44.623Z,31.02
2019-05-15T18:30:18.437Z,31.02
2019-05-15T18:32:51.925Z,31.09
2019-05-15T18:35:25.322Z,31.03
2019-05-15T18:37:59.232Z,31.09
2019-05-15T18:40:32.646Z,30.80
2019-05-15T18:43:06.076Z,30.63
2019-05-15T18:45:39.596Z,30.81
2019-05-15T18:48:13.308Z,30.77
2019-05-15T18:50:48.227Z,30.81
2019-05-15T18:53:21.761Z,30.83
2019-05-15T18:55:55.387Z,30.29
2019-05-15T18:58:32.973Z,30.79
2019-05-15T19:01:09.243Z,30.77
2019-05-15T19:03:42.193Z,30.69
2019-05-15T19:06:18.321Z,30.49
2019-05-15T19:08:53.183Z,30.80
2019-05-15T19:11:25.963Z,30.89
2019-05-15T19:13:59.436Z,31.08
2019-05-15T19:16:32.754Z,31.13
2019-05-15T19:19:07.812Z,30.81
2019-05-15T19:21:41.929Z,31.00
2019-05-15T19:24:18.557Z,30.77
2019-05-15T19:26:52.540Z,30.84
2019-05-15T19:29:28.474Z,30.96
2019-05-15T19:32:02.044Z,31.12
2019-05-15T19:34:35.460Z,31.18
2019-05-15T19:37:08.867Z,31.12
2019-05-15T19:39:42.363Z,31.10
2019-05-15T19:42:17.968Z,31.23
2019-05-15T19:44:50.866Z,31.51
2019-05-15T19:47:24.232Z,31.34
2019-05-15T19:49:57.854Z,31.37
2019-05-15T19:52:31.321Z,31.18
2019-05-15T19:55:05.120Z,31.27
2019-05-15T19:57:39.177Z,31.51
2019-05-15T20:00:13.097Z,31.34
2019-05-15T20:02:48.613Z,31.42
2019-05-15T20:05:21.734Z,31.51
2019-05-15T20:07:55.303Z,31.36
2019-05-15T20:10:29.460Z,31.39
2019-05-15T20:13:03.028Z,31.45
2019-05-15T20:15:37.961Z,31.49
2019-05-15T20:18:13.369Z,31.63
2019-05-15T20:20:47.801Z,31.61
2019-05-15T20:23:21.437Z,31.64
2019-05-15T20:25:54.756Z,31.72
2019-05-15T20:28:28.707Z,31.69
2019-05-15T20:31:02.198Z,31.58
2019-05-15T20:33:37.755Z,31.59
2019-05-15T20:36:10.744Z,31.59
2019-05-15T20:38:44.163Z,31.54
2019-05-15T20:41:18.741Z,31.63
2019-05-15T20:43:52.221Z,31.84
2019-05-15T20:46:25.564Z,31.86
2019-05-15T20:48:58.959Z,31.94
2019-05-15T20:51:32.432Z,31.34
2019-05-15T20:54:05.784Z,31.65
2019-05-15T20:56:39.144Z,31.73
2019-05-15T20:59:12.654Z,31.79
2019-05-15T21:01:48.264Z,31.79
2019-05-15T21:04:23.813Z,31.63
2019-05-15T21:06:57.151Z,31.80
2019-05-15T21:09:31.559Z,31.79
2019-05-15T21:12:05.037Z,31.64
2019-05-15T21:14:40.075Z,31.77
2019-05-15T21:17:15.639Z,31.83
2019-05-15T21:19:49.108Z,31.83
2019-05-15T21:22:22.549Z,31.82
2019-05-15T21:24:55.910Z,31.94
2019-05-15T21:27:32.793Z,31.92
2019-05-15T21:30:04.860Z,31.92
2019-05-15T21:32:38.480Z,31.42
2019-05-15T21:35:11.899Z,31.70
2019-05-15T21:37:45.197Z,31.70
2019-05-15T21:40:19.615Z,31.18
2019-05-15T21:42:53.108Z,31.52
2019-05-15T21:45:28.820Z,31.62
2019-05-15T21:48:01.481Z,31.66
2019-05-15T21:50:34.838Z,31.72
2019-05-15T21:53:08.170Z,31.58
2019-05-15T21:55:41.505Z,31.65
2019-05-15T21:58:14.954Z,31.67
2019-05-15T22:00:51.358Z,31.80
2019-05-15T22:03:24.727Z,31.78
2019-05-15T22:05:58.249Z,31.74
2019-05-15T22:08:31.668Z,31.80
2019-05-15T22:11:05.039Z,31.84
2019-05-15T22:13:39.286Z,31.82
2019-05-15T22:16:13.939Z,31.86
2019-05-15T22:18:47.891Z,31.86
2019-05-15T22:21:21.239Z,32.00
2019-05-15T22:23:59.869Z,31.67
2019-05-15T22:26:30.718Z,31.75
2019-05-15T22:29:05.151Z,31.45
2019-05-15T22:31:40.100Z,31.68
2019-05-15T22:34:14.055Z,31.70
2019-05-15T22:36:50.576Z,31.76
2019-05-15T22:39:22.429Z,31.82
2019-05-15T22:41:55.742Z,31.76
2019-05-15T22:44:28.906Z,31.78
2019-05-15T22:47:02.229Z,31.79
2019-05-15T22:49:37.910Z,31.50
2019-05-15T22:52:10.469Z,31.63
2019-05-15T22:54:47.777Z,31.67
2019-05-15T22:57:20.808Z,31.68
2019-05-15T22:59:54.154Z,31.69
2019-05-15T23:02:27.468Z,31.73
2019-05-15T23:05:00.822Z,31.75
2019-05-15T23:07:34.139Z,31.71
2019-05-15T23:10:08.896Z,31.70
2019-05-15T23:12:42.449Z,31.75
2019-05-15T23:15:18.717Z,31.43
2019-05-15T23:17:51.279Z,31.62
2019-05-15T23:20:24.593Z,31.62
2019-05-15T23:22:59.505Z,31.65
2019-05-15T23:25:32.874Z,31.62
2019-05-15T23:28:08.375Z,31.42
2019-05-15T23:30:41.437Z,31.58
2019-05-15T23:33:14.752Z,31.62
2019-05-15T23:35:48.556Z,31.21
2019-05-15T23:38:22.156Z,31.48
2019-05-15T23:40:55.479Z,31.50
2019-05-15T23:43:28.811Z,31.56
2019-05-15T23:46:02.172Z,31.63
2019-05-15T23:48:38.004Z,31.62
2019-05-15T23:51:10.744Z,31.60
2019-05-15T23:53:44.132Z,31.66
2019-05-15T23:56:19.361Z,31.68
2019-05-15T23:58:52.699Z,31.72
